sensor_id;sensor_type;location;lat;lon;timestamp;P1;durP1;ratioP1;P2;durP2;ratioP2
7657;SDS011;8462;53.156;8.220;2023-02-23T00:00:23;28.77;;;16.57;;
7657;SDS011;8462;53.156;8.220;2023-02-23T00:02:53;30.50;;;17.40;;
7657;SDS011;8462;53.156;8.220;2023-02-23T00:05:23;31.13;;;18.43;;
7657;SDS011;8462;53.156;8.220;2023-02-23T00:07:50;31.70;;;18.50;;
7657;SDS011;8462;53.156;8.220;2023-02-23T00:10:18;32.13;;;17.63;;
7657;SDS011;8462;53.156;8.220;2023-02-23T00:12:46;30.10;;;16.67;;
7657;SDS011;8462;53.156;8.220;2023-02-23T00:15:15;31.83;;;17.60;;
7657;SDS011;8462;53.156;8.220;2023-02-23T00:17:42;37.03;;;17.97;;
7657;SDS011;8462;53.156;8.220;2023-02-23T00:20:12;35.83;;;18.27;;
7657;SDS011;8462;53.156;8.220;2023-02-23T00:22:41;31.77;;;18.60;;
7657;SDS011;8462;53.156;8.220;2023-02-23T00:25:08;33.93;;;18.57;;
7657;SDS011;8462;53.156;8.220;2023-02-23T00:27:36;32.30;;;17.83;;
7657;SDS011;8462;53.156;8.220;2023-02-23T00:30:09;32.77;;;17.73;;
7657;SDS011;8462;53.156;8.220;2023-02-23T00:32:38;35.03;;;18.87;;
7657;SDS011;8462;53.156;8.220;2023-02-23T00:35:05;38.13;;;20.63;;
7657;SDS011;8462;53.156;8.220;2023-02-23T00:37:36;37.37;;;19.83;;
7657;SDS011;8462;53.156;8.220;2023-02-23T00:40:03;32.40;;;18.23;;
7657;SDS011;8462;53.156;8.220;2023-02-23T00:42:32;35.80;;;17.57;;
7657;SDS011;8462;53.156;8.220;2023-02-23T00:45:00;35.10;;;19.07;;
7657;SDS011;8462;53.156;8.220;2023-02-23T00:47:33;36.90;;;18.50;;
7657;SDS011;8462;53.156;8.220;2023-02-23T00:50:02;32.10;;;17.80;;
7657;SDS011;8462;53.156;8.220;2023-02-23T00:52:29;39.83;;;19.03;;
7657;SDS011;8462;53.156;8.220;2023-02-23T00:55:01;32.20;;;17.60;;
7657;SDS011;8462;53.156;8.220;2023-02-23T00:57:28;38.63;;;18.50;;
7657;SDS011;8462;53.156;8.220;2023-02-23T00:59:55;41.47;;;18.70;;
7657;SDS011;8462;53.156;8.220;2023-02-23T01:02:24;35.20;;;18.23;;
7657;SDS011;8462;53.156;8.220;2023-02-23T01:04:54;40.00;;;19.90;;
7657;SDS011;8462;53.156;8.220;2023-02-23T01:07:24;30.70;;;18.17;;
7657;SDS011;8462;53.156;8.220;2023-02-23T01:09:51;35.37;;;17.83;;
7657;SDS011;8462;53.156;8.220;2023-02-23T01:12:18;34.70;;;18.70;;
7657;SDS011;8462;53.156;8.220;2023-02-23T01:14:45;34.03;;;17.27;;
7657;SDS011;8462;53.156;8.220;2023-02-23T01:17:12;37.60;;;19.83;;
7657;SDS011;8462;53.156;8.220;2023-02-23T01:19:41;41.80;;;19.67;;
7657;SDS011;8462;53.156;8.220;2023-02-23T01:22:08;32.93;;;18.27;;
7657;SDS011;8462;53.156;8.220;2023-02-23T01:24:36;38.83;;;20.30;;
7657;SDS011;8462;53.156;8.220;2023-02-23T01:27:03;37.10;;;19.70;;
7657;SDS011;8462;53.156;8.220;2023-02-23T01:29:32;37.03;;;19.20;;
7657;SDS011;8462;53.156;8.220;2023-02-23T01:32:00;37.50;;;18.50;;
7657;SDS011;8462;53.156;8.220;2023-02-23T01:34:27;34.33;;;19.63;;
7657;SDS011;8462;53.156;8.220;2023-02-23T01:36:53;36.60;;;18.03;;
7657;SDS011;8462;53.156;8.220;2023-02-23T01:39:22;44.60;;;19.53;;
7657;SDS011;8462;53.156;8.220;2023-02-23T01:41:50;36.83;;;19.67;;
7657;SDS011;8462;53.156;8.220;2023-02-23T01:47:25;37.23;;;18.03;;
7657;SDS011;8462;53.156;8.220;2023-02-23T01:49:52;40.60;;;19.37;;
7657;SDS011;8462;53.156;8.220;2023-02-23T01:52:19;41.03;;;19.33;;
7657;SDS011;8462;53.156;8.220;2023-02-23T01:54:47;41.40;;;19.73;;
7657;SDS011;8462;53.156;8.220;2023-02-23T01:57:19;43.63;;;19.67;;
7657;SDS011;8462;53.156;8.220;2023-02-23T01:59:52;37.03;;;19.63;;
7657;SDS011;8462;53.156;8.220;2023-02-23T02:02:22;40.07;;;17.90;;
7657;SDS011;8462;53.156;8.220;2023-02-23T02:04:57;39.80;;;19.13;;
7657;SDS011;8462;53.156;8.220;2023-02-23T02:07:27;39.57;;;18.93;;
7657;SDS011;8462;53.156;8.220;2023-02-23T02:09:57;39.60;;;18.17;;
7657;SDS011;8462;53.156;8.220;2023-02-23T02:12:43;43.60;;;19.40;;
7657;SDS011;8462;53.156;8.220;2023-02-23T02:15:12;40.93;;;19.47;;
7657;SDS011;8462;53.156;8.220;2023-02-23T02:17:43;42.17;;;19.80;;
7657;SDS011;8462;53.156;8.220;2023-02-23T02:20:36;41.37;;;19.13;;
7657;SDS011;8462;53.156;8.220;2023-02-23T02:23:26;41.60;;;19.53;;
7657;SDS011;8462;53.156;8.220;2023-02-23T02:26:11;37.30;;;17.40;;
7657;SDS011;8462;53.156;8.220;2023-02-23T02:35:30;34.73;;;17.73;;
7657;SDS011;8462;53.156;8.220;2023-02-23T02:38:12;42.93;;;19.87;;
7657;SDS011;8462;53.156;8.220;2023-02-23T02:40:51;47.47;;;18.50;;
7657;SDS011;8462;53.156;8.220;2023-02-23T02:43:30;45.63;;;19.77;;
7657;SDS011;8462;53.156;8.220;2023-02-23T02:46:05;40.20;;;19.33;;
7657;SDS011;8462;53.156;8.220;2023-02-23T02:48:38;39.13;;;18.97;;
7657;SDS011;8462;53.156;8.220;2023-02-23T02:51:12;41.63;;;18.70;;
7657;SDS011;8462;53.156;8.220;2023-02-23T02:53:49;41.93;;;20.07;;
7657;SDS011;8462;53.156;8.220;2023-02-23T02:56:19;42.87;;;19.43;;
7657;SDS011;8462;53.156;8.220;2023-02-23T02:58:50;41.30;;;19.17;;
7657;SDS011;8462;53.156;8.220;2023-02-23T03:01:18;44.47;;;19.63;;
7657;SDS011;8462;53.156;8.220;2023-02-23T03:04:18;37.80;;;18.50;;
7657;SDS011;8462;53.156;8.220;2023-02-23T03:07:05;43.63;;;18.57;;
7657;SDS011;8462;53.156;8.220;2023-02-23T03:09:57;38.33;;;19.07;;
7657;SDS011;8462;53.156;8.220;2023-02-23T03:12:49;43.93;;;19.50;;
7657;SDS011;8462;53.156;8.220;2023-02-23T03:15:43;38.67;;;18.20;;
7657;SDS011;8462;53.156;8.220;2023-02-23T03:18:54;43.70;;;19.57;;
7657;SDS011;8462;53.156;8.220;2023-02-23T03:21:49;39.00;;;18.43;;
7657;SDS011;8462;53.156;8.220;2023-02-23T03:24:38;45.00;;;20.00;;
7657;SDS011;8462;53.156;8.220;2023-02-23T03:27:28;46.70;;;19.20;;
7657;SDS011;8462;53.156;8.220;2023-02-23T03:30:25;42.27;;;19.13;;
7657;SDS011;8462;53.156;8.220;2023-02-23T03:33:18;46.73;;;19.30;;
7657;SDS011;8462;53.156;8.220;2023-02-23T03:36:12;40.47;;;18.43;;
7657;SDS011;8462;53.156;8.220;2023-02-23T03:39:03;40.97;;;19.13;;
7657;SDS011;8462;53.156;8.220;2023-02-23T03:42:05;38.27;;;19.97;;
7657;SDS011;8462;53.156;8.220;2023-02-23T03:44:58;46.17;;;20.73;;
7657;SDS011;8462;53.156;8.220;2023-02-23T03:47:47;36.07;;;18.67;;
7657;SDS011;8462;53.156;8.220;2023-02-23T03:50:36;45.30;;;19.33;;
7657;SDS011;8462;53.156;8.220;2023-02-23T03:53:24;49.00;;;19.30;;
7657;SDS011;8462;53.156;8.220;2023-02-23T03:56:11;49.13;;;20.77;;
7657;SDS011;8462;53.156;8.220;2023-02-23T03:58:59;44.00;;;20.13;;
7657;SDS011;8462;53.156;8.220;2023-02-23T04:01:49;46.30;;;19.90;;
7657;SDS011;8462;53.156;8.220;2023-02-23T04:04:36;44.97;;;19.47;;
7657;SDS011;8462;53.156;8.220;2023-02-23T04:07:22;43.37;;;20.13;;
7657;SDS011;8462;53.156;8.220;2023-02-23T04:10:09;44.70;;;21.67;;
7657;SDS011;8462;53.156;8.220;2023-02-23T04:12:55;46.20;;;20.20;;
7657;SDS011;8462;53.156;8.220;2023-02-23T04:15:43;47.17;;;20.90;;
7657;SDS011;8462;53.156;8.220;2023-02-23T04:18:15;52.73;;;21.67;;
7657;SDS011;8462;53.156;8.220;2023-02-23T04:20:43;49.33;;;21.33;;
7657;SDS011;8462;53.156;8.220;2023-02-23T04:23:10;50.07;;;21.40;;
7657;SDS011;8462;53.156;8.220;2023-02-23T04:25:37;54.23;;;20.63;;
7657;SDS011;8462;53.156;8.220;2023-02-23T04:28:04;59.93;;;25.80;;
7657;SDS011;8462;53.156;8.220;2023-02-23T04:30:31;59.23;;;24.73;;
7657;SDS011;8462;53.156;8.220;2023-02-23T04:32:58;53.03;;;22.93;;
7657;SDS011;8462;53.156;8.220;2023-02-23T04:35:26;50.50;;;23.23;;
7657;SDS011;8462;53.156;8.220;2023-02-23T04:37:55;53.17;;;22.60;;
7657;SDS011;8462;53.156;8.220;2023-02-23T04:40:23;48.33;;;22.77;;
7657;SDS011;8462;53.156;8.220;2023-02-23T04:42:50;44.33;;;20.37;;
7657;SDS011;8462;53.156;8.220;2023-02-23T04:45:17;49.63;;;22.27;;
7657;SDS011;8462;53.156;8.220;2023-02-23T04:47:45;52.93;;;22.27;;
7657;SDS011;8462;53.156;8.220;2023-02-23T04:50:12;55.60;;;24.07;;
7657;SDS011;8462;53.156;8.220;2023-02-23T04:52:41;51.03;;;20.63;;
7657;SDS011;8462;53.156;8.220;2023-02-23T04:55:08;48.10;;;22.33;;
7657;SDS011;8462;53.156;8.220;2023-02-23T04:57:42;52.50;;;21.77;;
7657;SDS011;8462;53.156;8.220;2023-02-23T05:00:10;58.10;;;22.27;;
7657;SDS011;8462;53.156;8.220;2023-02-23T05:02:37;55.17;;;23.10;;
7657;SDS011;8462;53.156;8.220;2023-02-23T05:05:05;48.87;;;21.07;;
7657;SDS011;8462;53.156;8.220;2023-02-23T05:07:33;53.70;;;22.07;;
7657;SDS011;8462;53.156;8.220;2023-02-23T05:10:01;56.47;;;23.37;;
7657;SDS011;8462;53.156;8.220;2023-02-23T05:12:29;52.33;;;23.03;;
7657;SDS011;8462;53.156;8.220;2023-02-23T05:14:56;52.57;;;23.17;;
7657;SDS011;8462;53.156;8.220;2023-02-23T05:17:24;60.80;;;23.80;;
7657;SDS011;8462;53.156;8.220;2023-02-23T05:19:51;58.53;;;25.07;;
7657;SDS011;8462;53.156;8.220;2023-02-23T05:22:18;55.13;;;24.00;;
7657;SDS011;8462;53.156;8.220;2023-02-23T05:24:45;53.90;;;22.90;;
7657;SDS011;8462;53.156;8.220;2023-02-23T05:27:14;58.83;;;24.73;;
7657;SDS011;8462;53.156;8.220;2023-02-23T05:29:41;56.80;;;24.23;;
7657;SDS011;8462;53.156;8.220;2023-02-23T05:32:08;62.40;;;24.20;;
7657;SDS011;8462;53.156;8.220;2023-02-23T05:34:35;51.97;;;24.03;;
7657;SDS011;8462;53.156;8.220;2023-02-23T05:37:03;56.83;;;23.13;;
7657;SDS011;8462;53.156;8.220;2023-02-23T05:39:30;61.23;;;23.80;;
7657;SDS011;8462;53.156;8.220;2023-02-23T05:41:57;64.17;;;24.27;;
7657;SDS011;8462;53.156;8.220;2023-02-23T05:44:26;58.53;;;23.43;;
7657;SDS011;8462;53.156;8.220;2023-02-23T05:46:54;53.67;;;23.23;;
7657;SDS011;8462;53.156;8.220;2023-02-23T05:49:21;62.53;;;24.37;;
7657;SDS011;8462;53.156;8.220;2023-02-23T05:51:48;55.10;;;24.80;;
7657;SDS011;8462;53.156;8.220;2023-02-23T05:54:15;59.80;;;23.30;;
7657;SDS011;8462;53.156;8.220;2023-02-23T05:56:42;54.57;;;23.53;;
7657;SDS011;8462;53.156;8.220;2023-02-23T05:59:09;59.60;;;23.13;;
7657;SDS011;8462;53.156;8.220;2023-02-23T06:01:38;60.90;;;25.60;;
7657;SDS011;8462;53.156;8.220;2023-02-23T06:04:06;68.00;;;24.63;;
7657;SDS011;8462;53.156;8.220;2023-02-23T06:06:32;59.07;;;23.87;;
7657;SDS011;8462;53.156;8.220;2023-02-23T06:09:00;61.70;;;24.53;;
7657;SDS011;8462;53.156;8.220;2023-02-23T06:11:27;69.50;;;25.20;;
7657;SDS011;8462;53.156;8.220;2023-02-23T06:13:56;59.17;;;24.80;;
7657;SDS011;8462;53.156;8.220;2023-02-23T06:16:26;63.80;;;25.00;;
7657;SDS011;8462;53.156;8.220;2023-02-23T06:18:54;57.43;;;23.17;;
7657;SDS011;8462;53.156;8.220;2023-02-23T06:21:21;61.03;;;24.70;;
7657;SDS011;8462;53.156;8.220;2023-02-23T06:23:49;67.37;;;25.30;;
7657;SDS011;8462;53.156;8.220;2023-02-23T06:26:17;57.87;;;23.30;;
7657;SDS011;8462;53.156;8.220;2023-02-23T06:28:45;64.63;;;25.77;;
7657;SDS011;8462;53.156;8.220;2023-02-23T06:31:12;65.93;;;26.37;;
7657;SDS011;8462;53.156;8.220;2023-02-23T06:33:38;57.37;;;23.53;;
7657;SDS011;8462;53.156;8.220;2023-02-23T06:36:08;65.90;;;25.23;;
7657;SDS011;8462;53.156;8.220;2023-02-23T06:38:35;67.10;;;25.73;;
7657;SDS011;8462;53.156;8.220;2023-02-23T06:41:05;66.00;;;26.60;;
7657;SDS011;8462;53.156;8.220;2023-02-23T06:43:33;76.87;;;27.60;;
7657;SDS011;8462;53.156;8.220;2023-02-23T06:46:00;68.67;;;26.70;;
7657;SDS011;8462;53.156;8.220;2023-02-23T06:48:27;72.03;;;25.33;;
7657;SDS011;8462;53.156;8.220;2023-02-23T06:50:53;75.30;;;28.97;;
7657;SDS011;8462;53.156;8.220;2023-02-23T06:53:24;80.23;;;28.27;;
7657;SDS011;8462;53.156;8.220;2023-02-23T06:55:51;78.73;;;29.23;;
7657;SDS011;8462;53.156;8.220;2023-02-23T06:58:18;86.33;;;28.60;;
7657;SDS011;8462;53.156;8.220;2023-02-23T07:00:45;68.37;;;28.23;;
7657;SDS011;8462;53.156;8.220;2023-02-23T07:03:12;86.40;;;30.27;;
7657;SDS011;8462;53.156;8.220;2023-02-23T07:05:39;95.80;;;29.03;;
7657;SDS011;8462;53.156;8.220;2023-02-23T07:08:06;84.40;;;29.07;;
7657;SDS011;8462;53.156;8.220;2023-02-23T07:10:34;94.90;;;30.60;;
7657;SDS011;8462;53.156;8.220;2023-02-23T07:13:01;91.77;;;32.37;;
7657;SDS011;8462;53.156;8.220;2023-02-23T07:15:28;96.67;;;31.93;;
7657;SDS011;8462;53.156;8.220;2023-02-23T07:17:54;84.20;;;29.47;;
7657;SDS011;8462;53.156;8.220;2023-02-23T07:20:21;99.23;;;32.70;;
7657;SDS011;8462;53.156;8.220;2023-02-23T07:22:48;86.23;;;28.80;;
7657;SDS011;8462;53.156;8.220;2023-02-23T07:25:16;102.90;;;30.80;;
7657;SDS011;8462;53.156;8.220;2023-02-23T07:27:44;88.90;;;31.63;;
7657;SDS011;8462;53.156;8.220;2023-02-23T07:30:11;92.03;;;31.67;;
7657;SDS011;8462;53.156;8.220;2023-02-23T07:32:39;100.00;;;32.33;;
7657;SDS011;8462;53.156;8.220;2023-02-23T07:35:06;103.43;;;33.17;;
7657;SDS011;8462;53.156;8.220;2023-02-23T07:37:34;101.03;;;31.83;;
7657;SDS011;8462;53.156;8.220;2023-02-23T07:40:01;101.10;;;32.00;;
7657;SDS011;8462;53.156;8.220;2023-02-23T07:42:28;100.33;;;33.60;;
7657;SDS011;8462;53.156;8.220;2023-02-23T07:44:56;100.40;;;34.07;;
7657;SDS011;8462;53.156;8.220;2023-02-23T07:47:23;100.57;;;33.67;;
7657;SDS011;8462;53.156;8.220;2023-02-23T07:49:55;97.60;;;33.90;;
7657;SDS011;8462;53.156;8.220;2023-02-23T07:52:23;91.07;;;31.57;;
7657;SDS011;8462;53.156;8.220;2023-02-23T07:54:50;98.03;;;30.57;;
7657;SDS011;8462;53.156;8.220;2023-02-23T07:57:19;93.10;;;29.83;;
7657;SDS011;8462;53.156;8.220;2023-02-23T07:59:47;103.77;;;32.47;;
7657;SDS011;8462;53.156;8.220;2023-02-23T08:02:15;90.40;;;29.37;;
7657;SDS011;8462;53.156;8.220;2023-02-23T08:04:42;102.37;;;32.03;;
7657;SDS011;8462;53.156;8.220;2023-02-23T08:07:09;89.90;;;30.37;;
7657;SDS011;8462;53.156;8.220;2023-02-23T08:09:36;85.97;;;29.13;;
7657;SDS011;8462;53.156;8.220;2023-02-23T08:12:03;89.37;;;30.13;;
7657;SDS011;8462;53.156;8.220;2023-02-23T08:14:31;82.10;;;29.83;;
7657;SDS011;8462;53.156;8.220;2023-02-23T08:16:59;90.60;;;27.70;;
7657;SDS011;8462;53.156;8.220;2023-02-23T08:19:27;77.60;;;29.70;;
7657;SDS011;8462;53.156;8.220;2023-02-23T08:21:54;80.73;;;27.77;;
7657;SDS011;8462;53.156;8.220;2023-02-23T08:24:21;80.13;;;30.00;;
7657;SDS011;8462;53.156;8.220;2023-02-23T08:26:48;83.63;;;28.87;;
7657;SDS011;8462;53.156;8.220;2023-02-23T08:29:15;74.10;;;29.17;;
7657;SDS011;8462;53.156;8.220;2023-02-23T08:31:42;77.67;;;26.30;;
7657;SDS011;8462;53.156;8.220;2023-02-23T08:34:10;80.07;;;27.17;;
7657;SDS011;8462;53.156;8.220;2023-02-23T08:36:38;75.27;;;28.57;;
7657;SDS011;8462;53.156;8.220;2023-02-23T08:39:06;76.87;;;26.33;;
7657;SDS011;8462;53.156;8.220;2023-02-23T08:41:35;78.63;;;28.07;;
7657;SDS011;8462;53.156;8.220;2023-02-23T08:44:04;80.50;;;26.93;;
7657;SDS011;8462;53.156;8.220;2023-02-23T08:46:31;75.87;;;26.70;;
7657;SDS011;8462;53.156;8.220;2023-02-23T08:49:00;75.53;;;27.40;;
7657;SDS011;8462;53.156;8.220;2023-02-23T08:51:27;78.37;;;28.90;;
7657;SDS011;8462;53.156;8.220;2023-02-23T08:53:55;69.73;;;27.20;;
7657;SDS011;8462;53.156;8.220;2023-02-23T08:56:22;66.23;;;25.37;;
7657;SDS011;8462;53.156;8.220;2023-02-23T08:58:51;79.80;;;27.40;;
7657;SDS011;8462;53.156;8.220;2023-02-23T09:01:18;76.67;;;25.93;;
7657;SDS011;8462;53.156;8.220;2023-02-23T09:03:47;68.37;;;26.90;;
7657;SDS011;8462;53.156;8.220;2023-02-23T09:06:16;77.27;;;26.90;;
7657;SDS011;8462;53.156;8.220;2023-02-23T09:08:45;73.50;;;25.43;;
7657;SDS011;8462;53.156;8.220;2023-02-23T09:11:13;70.60;;;26.20;;
7657;SDS011;8462;53.156;8.220;2023-02-23T09:13:40;72.53;;;26.57;;
7657;SDS011;8462;53.156;8.220;2023-02-23T09:16:07;68.93;;;25.70;;
7657;SDS011;8462;53.156;8.220;2023-02-23T09:18:36;63.23;;;25.97;;
7657;SDS011;8462;53.156;8.220;2023-02-23T09:21:04;76.83;;;26.07;;
7657;SDS011;8462;53.156;8.220;2023-02-23T09:23:35;67.93;;;26.00;;
7657;SDS011;8462;53.156;8.220;2023-02-23T09:26:02;66.47;;;23.27;;
7657;SDS011;8462;53.156;8.220;2023-02-23T09:28:32;65.43;;;23.23;;
7657;SDS011;8462;53.156;8.220;2023-02-23T09:31:05;55.90;;;22.73;;
7657;SDS011;8462;53.156;8.220;2023-02-23T09:33:33;67.13;;;24.20;;
7657;SDS011;8462;53.156;8.220;2023-02-23T09:36:06;68.00;;;24.87;;
7657;SDS011;8462;53.156;8.220;2023-02-23T09:38:35;74.37;;;26.00;;
7657;SDS011;8462;53.156;8.220;2023-02-23T09:41:02;78.50;;;24.83;;
7657;SDS011;8462;53.156;8.220;2023-02-23T09:43:45;78.10;;;25.43;;
7657;SDS011;8462;53.156;8.220;2023-02-23T09:46:19;79.00;;;24.43;;
7657;SDS011;8462;53.156;8.220;2023-02-23T09:48:53;81.20;;;25.47;;
7657;SDS011;8462;53.156;8.220;2023-02-23T09:51:21;80.40;;;24.87;;
7657;SDS011;8462;53.156;8.220;2023-02-23T09:53:49;83.17;;;25.97;;
7657;SDS011;8462;53.156;8.220;2023-02-23T09:56:23;84.93;;;26.80;;
7657;SDS011;8462;53.156;8.220;2023-02-23T09:58:57;84.77;;;25.70;;
7657;SDS011;8462;53.156;8.220;2023-02-23T10:04:21;78.70;;;25.57;;
7657;SDS011;8462;53.156;8.220;2023-02-23T10:06:59;85.13;;;26.43;;
7657;SDS011;8462;53.156;8.220;2023-02-23T10:09:39;87.40;;;25.83;;
7657;SDS011;8462;53.156;8.220;2023-02-23T10:12:17;75.50;;;26.07;;
7657;SDS011;8462;53.156;8.220;2023-02-23T10:14:57;81.63;;;26.10;;
7657;SDS011;8462;53.156;8.220;2023-02-23T10:17:34;84.50;;;27.40;;
7657;SDS011;8462;53.156;8.220;2023-02-23T10:20:11;79.23;;;26.60;;
7657;SDS011;8462;53.156;8.220;2023-02-23T10:22:44;83.50;;;27.07;;
7657;SDS011;8462;53.156;8.220;2023-02-23T10:25:14;93.67;;;27.90;;
7657;SDS011;8462;53.156;8.220;2023-02-23T10:27:46;79.80;;;27.07;;
7657;SDS011;8462;53.156;8.220;2023-02-23T10:30:22;87.80;;;29.93;;
7657;SDS011;8462;53.156;8.220;2023-02-23T10:32:55;99.25;;;29.30;;
7657;SDS011;8462;53.156;8.220;2023-02-23T10:35:27;100.05;;;32.70;;
7657;SDS011;8462;53.156;8.220;2023-02-23T10:37:56;112.13;;;33.40;;
7657;SDS011;8462;53.156;8.220;2023-02-23T10:40:26;112.55;;;35.38;;
7657;SDS011;8462;53.156;8.220;2023-02-23T10:42:55;105.97;;;33.70;;
7657;SDS011;8462;53.156;8.220;2023-02-23T10:45:25;97.55;;;31.48;;
7657;SDS011;8462;53.156;8.220;2023-02-23T10:47:56;102.97;;;33.70;;
7657;SDS011;8462;53.156;8.220;2023-02-23T10:50:25;106.80;;;33.50;;
7657;SDS011;8462;53.156;8.220;2023-02-23T10:52:55;93.10;;;31.33;;
7657;SDS011;8462;53.156;8.220;2023-02-23T10:55:26;108.65;;;31.50;;
7657;SDS011;8462;53.156;8.220;2023-02-23T10:58:01;108.15;;;34.47;;
7657;SDS011;8462;53.156;8.220;2023-02-23T11:00:32;112.78;;;36.30;;
7657;SDS011;8462;53.156;8.220;2023-02-23T11:03:01;115.25;;;36.50;;
7657;SDS011;8462;53.156;8.220;2023-02-23T11:05:43;105.65;;;34.17;;
7657;SDS011;8462;53.156;8.220;2023-02-23T11:08:19;98.57;;;35.40;;
7657;SDS011;8462;53.156;8.220;2023-02-23T11:13:50;101.03;;;33.85;;
7657;SDS011;8462;53.156;8.220;2023-02-23T11:16:19;91.13;;;33.10;;
7657;SDS011;8462;53.156;8.220;2023-02-23T11:18:49;96.43;;;32.38;;
7657;SDS011;8462;53.156;8.220;2023-02-23T11:21:26;93.78;;;34.10;;
7657;SDS011;8462;53.156;8.220;2023-02-23T11:23:58;99.50;;;34.53;;
7657;SDS011;8462;53.156;8.220;2023-02-23T11:26:31;95.32;;;34.47;;
7657;SDS011;8462;53.156;8.220;2023-02-23T11:29:08;98.75;;;33.15;;
7657;SDS011;8462;53.156;8.220;2023-02-23T11:31:44;97.20;;;33.40;;
7657;SDS011;8462;53.156;8.220;2023-02-23T11:34:20;103.30;;;34.17;;
7657;SDS011;8462;53.156;8.220;2023-02-23T11:36:59;102.75;;;34.10;;
7657;SDS011;8462;53.156;8.220;2023-02-23T11:39:29;87.60;;;29.47;;
7657;SDS011;8462;53.156;8.220;2023-02-23T11:42:11;89.20;;;28.10;;
7657;SDS011;8462;53.156;8.220;2023-02-23T11:44:41;85.10;;;28.33;;
7657;SDS011;8462;53.156;8.220;2023-02-23T11:47:17;91.87;;;29.77;;
7657;SDS011;8462;53.156;8.220;2023-02-23T11:49:47;83.30;;;27.50;;
7657;SDS011;8462;53.156;8.220;2023-02-23T11:52:18;88.57;;;28.13;;
7657;SDS011;8462;53.156;8.220;2023-02-23T11:54:49;93.40;;;28.83;;
7657;SDS011;8462;53.156;8.220;2023-02-23T11:57:20;115.60;;;37.08;;
7657;SDS011;8462;53.156;8.220;2023-02-23T11:59:48;119.05;;;36.60;;
7657;SDS011;8462;53.156;8.220;2023-02-23T12:02:20;116.60;;;36.65;;
7657;SDS011;8462;53.156;8.220;2023-02-23T12:04:49;110.72;;;36.65;;
7657;SDS011;8462;53.156;8.220;2023-02-23T12:07:30;97.93;;;32.92;;
7657;SDS011;8462;53.156;8.220;2023-02-23T12:10:04;98.23;;;30.23;;
7657;SDS011;8462;53.156;8.220;2023-02-23T12:12:38;79.77;;;27.03;;
7657;SDS011;8462;53.156;8.220;2023-02-23T12:15:14;74.27;;;27.37;;
7657;SDS011;8462;53.156;8.220;2023-02-23T12:17:52;84.00;;;26.77;;
7657;SDS011;8462;53.156;8.220;2023-02-23T12:20:24;101.45;;;33.50;;
7657;SDS011;8462;53.156;8.220;2023-02-23T12:22:55;95.13;;;32.35;;
7657;SDS011;8462;53.156;8.220;2023-02-23T12:25:26;88.80;;;31.70;;
7657;SDS011;8462;53.156;8.220;2023-02-23T12:28:01;73.77;;;26.60;;
7657;SDS011;8462;53.156;8.220;2023-02-23T12:30:35;90.72;;;31.92;;
7657;SDS011;8462;53.156;8.220;2023-02-23T12:33:10;89.45;;;32.88;;
7657;SDS011;8462;53.156;8.220;2023-02-23T12:35:44;89.00;;;31.83;;
7657;SDS011;8462;53.156;8.220;2023-02-23T12:38:19;86.07;;;31.67;;
7657;SDS011;8462;53.156;8.220;2023-02-23T12:40:53;85.57;;;31.48;;
7657;SDS011;8462;53.156;8.220;2023-02-23T12:43:28;85.57;;;32.23;;
7657;SDS011;8462;53.156;8.220;2023-02-23T12:46:04;74.88;;;28.10;;
7657;SDS011;8462;53.156;8.220;2023-02-23T12:48:40;73.85;;;29.17;;
7657;SDS011;8462;53.156;8.220;2023-02-23T12:51:15;67.68;;;26.95;;
7657;SDS011;8462;53.156;8.220;2023-02-23T12:53:47;65.73;;;23.30;;
7657;SDS011;8462;53.156;8.220;2023-02-23T12:56:27;62.83;;;24.95;;
7657;SDS011;8462;53.156;8.220;2023-02-23T12:59:12;54.87;;;21.67;;
7657;SDS011;8462;53.156;8.220;2023-02-23T13:01:52;52.57;;;20.57;;
7657;SDS011;8462;53.156;8.220;2023-02-23T13:04:30;56.20;;;20.00;;
7657;SDS011;8462;53.156;8.220;2023-02-23T13:07:14;54.00;;;20.67;;
7657;SDS011;8462;53.156;8.220;2023-02-23T13:09:50;49.50;;;18.83;;
7657;SDS011;8462;53.156;8.220;2023-02-23T13:12:28;47.57;;;17.37;;
7657;SDS011;8462;53.156;8.220;2023-02-23T13:15:12;45.33;;;16.63;;
7657;SDS011;8462;53.156;8.220;2023-02-23T13:17:48;42.13;;;17.23;;
7657;SDS011;8462;53.156;8.220;2023-02-23T13:20:25;44.77;;;18.63;;
7657;SDS011;8462;53.156;8.220;2023-02-23T13:22:59;45.63;;;17.57;;
7657;SDS011;8462;53.156;8.220;2023-02-23T13:25:44;42.43;;;17.13;;
7657;SDS011;8462;53.156;8.220;2023-02-23T13:28:16;43.50;;;16.90;;
7657;SDS011;8462;53.156;8.220;2023-02-23T13:30:52;52.63;;;19.23;;
7657;SDS011;8462;53.156;8.220;2023-02-23T13:33:23;37.13;;;15.57;;
7657;SDS011;8462;53.156;8.220;2023-02-23T13:35:54;47.23;;;18.07;;
7657;SDS011;8462;53.156;8.220;2023-02-23T13:38:22;45.70;;;17.33;;
7657;SDS011;8462;53.156;8.220;2023-02-23T13:41:02;46.30;;;16.70;;
7657;SDS011;8462;53.156;8.220;2023-02-23T13:43:36;47.10;;;18.40;;
7657;SDS011;8462;53.156;8.220;2023-02-23T13:46:16;40.80;;;15.90;;
7657;SDS011;8462;53.156;8.220;2023-02-23T13:48:52;41.57;;;14.83;;
7657;SDS011;8462;53.156;8.220;2023-02-23T13:51:26;42.70;;;15.60;;
7657;SDS011;8462;53.156;8.220;2023-02-23T13:54:01;36.83;;;15.10;;
7657;SDS011;8462;53.156;8.220;2023-02-23T13:56:33;41.93;;;17.43;;
7657;SDS011;8462;53.156;8.220;2023-02-23T13:59:14;35.47;;;14.57;;
7657;SDS011;8462;53.156;8.220;2023-02-23T14:01:43;31.20;;;13.83;;
7657;SDS011;8462;53.156;8.220;2023-02-23T14:04:20;42.47;;;16.10;;
7657;SDS011;8462;53.156;8.220;2023-02-23T14:06:51;38.63;;;16.67;;
7657;SDS011;8462;53.156;8.220;2023-02-23T14:09:21;40.45;;;16.88;;
7657;SDS011;8462;53.156;8.220;2023-02-23T14:11:55;38.17;;;15.87;;
7657;SDS011;8462;53.156;8.220;2023-02-23T14:14:39;37.13;;;15.90;;
7657;SDS011;8462;53.156;8.220;2023-02-23T14:17:09;41.40;;;16.27;;
7657;SDS011;8462;53.156;8.220;2023-02-23T14:20:04;41.37;;;14.07;;
7657;SDS011;8462;53.156;8.220;2023-02-23T14:25:47;35.10;;;13.93;;
7657;SDS011;8462;53.156;8.220;2023-02-23T14:28:25;35.93;;;13.43;;
7657;SDS011;8462;53.156;8.220;2023-02-23T14:31:00;34.23;;;13.17;;
7657;SDS011;8462;53.156;8.220;2023-02-23T14:33:47;36.53;;;13.70;;
7657;SDS011;8462;53.156;8.220;2023-02-23T14:36:26;30.90;;;12.47;;
7657;SDS011;8462;53.156;8.220;2023-02-23T14:39:02;34.77;;;12.63;;
7657;SDS011;8462;53.156;8.220;2023-02-23T14:41:37;37.63;;;13.23;;
7657;SDS011;8462;53.156;8.220;2023-02-23T14:44:11;35.63;;;14.13;;
7657;SDS011;8462;53.156;8.220;2023-02-23T14:46:46;34.57;;;13.40;;
7657;SDS011;8462;53.156;8.220;2023-02-23T14:49:16;38.17;;;14.03;;
7657;SDS011;8462;53.156;8.220;2023-02-23T14:51:46;34.57;;;14.37;;
7657;SDS011;8462;53.156;8.220;2023-02-23T14:54:25;37.53;;;14.50;;
7657;SDS011;8462;53.156;8.220;2023-02-23T14:56:56;37.47;;;13.67;;
7657;SDS011;8462;53.156;8.220;2023-02-23T14:59:26;39.63;;;13.83;;
7657;SDS011;8462;53.156;8.220;2023-02-23T15:01:55;42.17;;;14.33;;
7657;SDS011;8462;53.156;8.220;2023-02-23T15:04:26;37.43;;;13.00;;
7657;SDS011;8462;53.156;8.220;2023-02-23T15:06:55;35.50;;;12.73;;
7657;SDS011;8462;53.156;8.220;2023-02-23T15:09:30;32.90;;;11.30;;
7657;SDS011;8462;53.156;8.220;2023-02-23T15:12:02;29.70;;;10.63;;
7657;SDS011;8462;53.156;8.220;2023-02-23T15:14:38;18.87;;;9.30;;
7657;SDS011;8462;53.156;8.220;2023-02-23T15:17:08;22.60;;;8.93;;
7657;SDS011;8462;53.156;8.220;2023-02-23T15:19:40;20.27;;;7.97;;
7657;SDS011;8462;53.156;8.220;2023-02-23T15:22:07;20.47;;;6.40;;
7657;SDS011;8462;53.156;8.220;2023-02-23T15:24:46;22.07;;;6.27;;
7657;SDS011;8462;53.156;8.220;2023-02-23T15:27:15;28.07;;;6.23;;
7657;SDS011;8462;53.156;8.220;2023-02-23T15:29:43;22.70;;;6.30;;
7657;SDS011;8462;53.156;8.220;2023-02-23T15:32:12;27.97;;;5.80;;
7657;SDS011;8462;53.156;8.220;2023-02-23T15:34:43;26.63;;;5.83;;
7657;SDS011;8462;53.156;8.220;2023-02-23T15:37:12;23.53;;;6.77;;